Time;durP1;ratioP1;P1;durP2;ratioP2;P2;SDS_P1;SDS_P2;PMS_P1;PMS_P2;Temp;Humidity;BMP_temperature;BMP_pressure;BME280_temperature;BME280_humidity;BME280_pressure;Samples;Min_cycle;Max_cycle;Signal;HPM_P1;HPM_P2
2023/07/09 00:02:00;;;;;;;6.30;4.77;;;27.70;48.30;;;;;;5007049;28;20480;-49
2023/07/09 00:04:29;;;;;;;4.97;3.87;;;27.70;48.40;;;;;;5001820;28;20458;-49
2023/07/09 00:07:03;;;;;;;5.00;4.10;;;27.70;48.50;;;;;;5004562;28;20465;-49
2023/07/09 00:09:32;;;;;;;4.00;3.70;;;27.70;48.40;;;;;;4988922;28;20856;-49
2023/07/09 00:12:00;;;;;;;4.30;3.90;;;27.70;48.30;;;;;;5004567;28;20486;-49
2023/07/09 00:14:29;;;;;;;4.33;3.93;;;27.70;48.40;;;;;;5000745;28;20450;-49
2023/07/09 00:16:58;;;;;;;4.50;3.80;;;27.70;48.30;;;;;;4991165;28;20474;-49
2023/07/09 00:19:30;;;;;;;4.80;4.27;;;27.70;48.40;;;;;;4988878;28;20442;-48
2023/07/09 00:21:59;;;;;;;5.20;4.17;;;27.70;48.30;;;;;;5005956;28;20485;-49
2023/07/09 00:24:28;;;;;;;4.93;4.20;;;27.70;48.30;;;;;;4983596;28;20874;-48
2023/07/09 00:26:57;;;;;;;4.90;4.40;;;27.70;48.40;;;;;;5006074;28;20477;-49
2023/07/09 00:29:25;;;;;;;3.97;3.50;;;27.70;48.40;;;;;;5005782;28;20442;-49
2023/07/09 00:31:54;;;;;;;4.77;4.33;;;27.70;48.50;;;;;;4998692;28;20587;-48
2023/07/09 00:34:24;;;;;;;4.37;3.70;;;27.70;48.60;;;;;;5008177;28;20950;-49
2023/07/09 00:36:53;;;;;;;4.40;4.00;;;27.70;48.40;;;;;;4988225;28;20557;-48
2023/07/09 00:39:25;;;;;;;4.60;3.93;;;27.70;48.50;;;;;;5004042;28;20465;-49
2023/07/09 00:41:53;;;;;;;5.30;4.43;;;27.70;48.50;;;;;;4990780;28;20995;-49
2023/07/09 00:44:31;;;;;;;4.30;4.00;;;27.70;48.40;;;;;;5006016;28;20553;-49
2023/07/09 00:47:23;;;;;;;5.27;4.50;;;27.70;48.40;;;;;;4999851;28;20792;-49
2023/07/09 00:50:10;;;;;;;3.90;3.60;;;27.70;48.40;;;;;;4987893;28;20480;-48
2023/07/09 00:52:46;;;;;;;5.53;4.50;;;27.70;48.40;;;;;;4998001;28;20470;-49
2023/07/09 00:55:22;;;;;;;6.70;4.13;;;27.60;48.40;;;;;;4990032;28;20974;-49
2023/07/09 00:57:56;;;;;;;4.43;3.87;;;27.70;48.50;;;;;;5006725;28;20473;-49
2023/07/09 01:00:42;;;;;;;4.83;4.33;;;27.70;48.50;;;;;;4984589;28;20472;-49
2023/07/09 01:03:16;;;;;;;5.37;3.83;;;27.60;48.50;;;;;;5005287;28;20811;-48
2023/07/09 01:05:45;;;;;;;4.50;4.10;;;27.70;48.60;;;;;;5004887;28;20462;-49
2023/07/09 01:08:14;;;;;;;5.43;4.47;;;27.70;48.60;;;;;;4998710;28;20538;-49
2023/07/09 01:10:44;;;;;;;5.17;4.67;;;27.60;48.50;;;;;;4987753;28;20998;-48
2023/07/09 01:13:13;;;;;;;5.10;4.60;;;27.60;48.60;;;;;;4991697;28;20488;-49
2023/07/09 01:15:42;;;;;;;5.33;4.50;;;27.60;48.50;;;;;;5002558;28;20499;-48
2023/07/09 01:18:11;;;;;;;5.10;4.60;;;27.60;48.60;;;;;;4997669;28;20468;-48
2023/07/09 01:20:40;;;;;;;4.67;4.27;;;27.60;48.50;;;;;;5006150;28;20481;-48
2023/07/09 01:23:10;;;;;;;4.10;3.77;;;27.60;48.60;;;;;;4984505;28;20455;-49
2023/07/09 01:25:44;;;;;;;4.47;4.07;;;27.60;48.50;;;;;;5003766;28;20461;-48
2023/07/09 01:28:16;;;;;;;4.73;4.33;;;27.60;49.80;;;;;;4990460;28;20485;-48
2023/07/09 01:30:45;;;;;;;4.80;4.30;;;27.60;48.60;;;;;;4984888;28;21033;-48
2023/07/09 01:33:14;;;;;;;6.00;4.70;;;27.60;48.60;;;;;;4988781;28;20461;-48
2023/07/09 01:35:42;;;;;;;5.60;4.50;;;27.60;48.70;;;;;;4989385;28;20446;-49
2023/07/09 01:38:12;;;;;;;4.90;4.37;;;27.60;48.70;;;;;;5003769;28;20474;-49
2023/07/09 01:40:42;;;;;;;5.20;4.73;;;27.60;48.70;;;;;;5004626;28;20994;-49
2023/07/09 01:43:10;;;;;;;4.23;3.83;;;27.60;48.70;;;;;;4990377;28;20446;-49
2023/07/09 01:45:39;;;;;;;4.60;4.20;;;27.60;48.70;;;;;;5006611;28;20442;-49
2023/07/09 01:48:15;;;;;;;5.03;4.37;;;27.60;48.70;;;;;;4983031;28;20446;-49
2023/07/09 01:50:45;;;;;;;5.23;4.20;;;27.60;48.80;;;;;;5004346;28;20478;-49
2023/07/09 01:53:16;;;;;;;4.83;4.30;;;27.60;48.70;;;;;;4998051;28;20454;-49
2023/07/09 01:55:45;;;;;;;5.97;5.37;;;27.60;48.80;;;;;;4987788;28;20524;-49
2023/07/09 01:58:16;;;;;;;5.70;4.20;;;27.60;48.80;;;;;;5006219;28;20477;-49
2023/07/09 02:00:44;;;;;;;5.00;4.50;;;27.60;48.80;;;;;;5005973;28;20504;-49
2023/07/09 02:03:13;;;;;;;4.70;3.83;;;27.60;48.80;;;;;;4998210;28;20799;-49
2023/07/09 02:05:43;;;;;;;4.90;4.33;;;27.60;48.80;;;;;;5005843;28;20472;-49
2023/07/09 02:08:12;;;;;;;4.83;4.40;;;27.60;48.80;;;;;;5001098;28;20450;-48
2023/07/09 02:10:44;;;;;;;5.90;4.77;;;27.60;48.80;;;;;;4993710;28;20508;-49
2023/07/09 02:13:14;;;;;;;5.60;5.10;;;27.60;48.80;;;;;;4993257;28;20952;-48
2023/07/09 02:15:44;;;;;;;4.80;4.30;;;27.60;48.70;;;;;;5006467;28;20478;-49
2023/07/09 02:18:13;;;;;;;6.97;4.77;;;27.60;48.80;;;;;;5009213;28;20557;-49
2023/07/09 02:20:41;;;;;;;4.50;4.10;;;27.60;48.90;;;;;;5008080;28;20819;-49
2023/07/09 02:23:10;;;;;;;5.80;3.50;;;27.60;48.90;;;;;;5004613;28;20454;-48
2023/07/09 02:25:39;;;;;;;5.10;4.43;;;27.60;48.80;;;;;;4991596;28;20580;-49
2023/07/09 02:28:09;;;;;;;5.70;4.83;;;27.60;48.80;;;;;;5007978;28;20517;-49
2023/07/09 02:30:38;;;;;;;5.83;5.23;;;27.60;48.90;;;;;;5009643;28;20512;-49
2023/07/09 02:33:07;;;;;;;5.40;4.90;;;27.60;48.90;;;;;;4999180;28;20532;-49
2023/07/09 02:35:36;;;;;;;4.73;4.20;;;27.60;48.90;;;;;;5005572;28;20465;-49
2023/07/09 02:38:05;;;;;;;4.67;4.27;;;27.60;48.90;;;;;;5002311;28;20470;-49
2023/07/09 02:40:34;;;;;;;4.60;4.00;;;27.60;49.00;;;;;;5005740;28;20473;-48
2023/07/09 02:43:03;;;;;;;4.50;4.07;;;27.50;48.90;;;;;;5008391;28;20465;-49
2023/07/09 02:45:33;;;;;;;4.20;3.80;;;27.60;49.00;;;;;;4992439;28;20501;-48
2023/07/09 02:48:01;;;;;;;4.73;4.23;;;27.50;49.00;;;;;;5008145;28;20478;-49
2023/07/09 02:50:36;;;;;;;4.97;4.50;;;27.50;49.10;;;;;;4998516;28;20967;-48
2023/07/09 02:53:05;;;;;;;5.23;4.73;;;27.60;49.10;;;;;;4989946;28;20485;-49
2023/07/09 02:55:34;;;;;;;4.70;4.20;;;27.50;49.00;;;;;;4992166;28;20575;-48
2023/07/09 02:58:02;;;;;;;4.47;4.03;;;27.50;48.90;;;;;;4991792;28;20465;-48
2023/07/09 03:00:33;;;;;;;6.13;5.57;;;27.50;49.00;;;;;;4986260;28;20474;-49
2023/07/09 03:03:01;;;;;;;4.63;4.23;;;27.50;49.10;;;;;;5006433;28;20472;-49
2023/07/09 03:05:30;;;;;;;6.50;4.30;;;27.50;49.10;;;;;;4999384;28;20520;-49
2023/07/09 03:07:58;;;;;;;5.20;4.70;;;27.50;49.00;;;;;;5005768;28;20453;-49
2023/07/09 03:10:29;;;;;;;4.97;4.47;;;27.50;49.10;;;;;;4992778;28;20497;-49
2023/07/09 03:12:59;;;;;;;6.60;4.33;;;27.50;49.00;;;;;;4990000;28;20457;-48
2023/07/09 03:15:27;;;;;;;5.20;4.53;;;27.50;49.10;;;;;;4991105;28;20438;-48
2023/07/09 03:17:57;;;;;;;4.47;4.07;;;27.50;49.20;;;;;;5005781;28;20542;-48
2023/07/09 03:20:26;;;;;;;4.53;4.03;;;27.50;49.10;;;;;;4991188;28;20466;-49
2023/07/09 03:22:55;;;;;;;4.80;4.30;;;27.50;49.10;;;;;;5004524;28;21158;-49
2023/07/09 03:25:24;;;;;;;5.07;4.67;;;27.50;49.10;;;;;;5005288;28;20480;-49
2023/07/09 03:27:52;;;;;;;4.53;4.13;;;27.50;49.10;;;;;;4994605;28;20852;-48
2023/07/09 03:30:21;;;;;;;4.70;4.30;;;27.50;49.10;;;;;;4990509;28;20456;-49
2023/07/09 03:32:50;;;;;;;4.73;4.33;;;27.50;49.10;;;;;;5002010;28;20533;-48
2023/07/09 03:35:20;;;;;;;4.67;4.17;;;27.50;49.20;;;;;;4992053;28;20448;-49
2023/07/09 03:37:48;;;;;;;4.70;3.73;;;27.50;49.30;;;;;;5004242;28;20525;-48
2023/07/09 03:40:23;;;;;;;5.20;4.70;;;27.40;49.10;;;;;;5006100;28;21010;-48
2023/07/09 03:42:52;;;;;;;6.90;4.10;;;27.40;49.10;;;;;;4993205;28;20515;-49
2023/07/09 03:45:20;;;;;;;4.83;4.33;;;27.40;49.10;;;;;;4992447;28;20488;-49
2023/07/09 03:47:49;;;;;;;5.70;4.30;;;27.40;49.10;;;;;;5004093;28;20508;-48
2023/07/09 03:50:19;;;;;;;5.43;4.20;;;27.40;49.10;;;;;;5004827;28;20472;-49
2023/07/09 03:52:48;;;;;;;5.63;5.13;;;27.40;49.10;;;;;;5001846;28;20535;-49
2023/07/09 03:55:16;;;;;;;5.10;4.60;;;27.40;49.10;;;;;;5005891;28;20480;-49
2023/07/09 03:57:45;;;;;;;5.70;4.23;;;27.40;49.10;;;;;;4991468;28;20445;-49
2023/07/09 04:00:15;;;;;;;7.23;5.07;;;27.40;49.20;;;;;;4991224;28;20965;-48
2023/07/09 04:02:44;;;;;;;5.50;5.00;;;27.40;49.10;;;;;;4989016;28;20434;-49
2023/07/09 04:05:13;;;;;;;5.57;4.27;;;27.40;49.10;;;;;;4990995;28;20793;-49
2023/07/09 04:07:43;;;;;;;6.50;4.57;;;27.40;49.10;;;;;;5002157;28;20442;-49
2023/07/09 04:10:12;;;;;;;5.97;4.80;;;27.40;49.10;;;;;;5006286;28;20457;-49
2023/07/09 04:12:41;;;;;;;5.30;4.80;;;27.40;49.00;;;;;;5004239;28;20463;-48
2023/07/09 04:15:12;;;;;;;4.63;4.23;;;27.40;49.00;;;;;;5006468;28;20458;-49
2023/07/09 04:17:41;;;;;;;5.70;4.77;;;27.40;49.10;;;;;;5004575;28;20470;-49
2023/07/09 04:20:11;;;;;;;4.67;4.23;;;27.40;49.10;;;;;;5006866;28;21012;-49
2023/07/09 04:22:39;;;;;;;5.03;4.10;;;27.40;48.90;;;;;;5001461;28;20498;-49
2023/07/09 04:25:13;;;;;;;4.83;4.23;;;27.40;49.00;;;;;;4981985;28;20443;-49
2023/07/09 04:27:42;;;;;;;4.93;4.10;;;27.40;49.00;;;;;;4989033;28;20473;-49
2023/07/09 04:30:12;;;;;;;4.73;4.33;;;27.40;48.90;;;;;;5005313;28;20544;-49
2023/07/09 04:32:43;;;;;;;5.27;4.77;;;27.40;48.90;;;;;;5006531;28;20462;-49
2023/07/09 04:35:16;;;;;;;7.23;5.07;;;27.30;48.90;;;;;;4990527;28;20441;-48
2023/07/09 04:37:44;;;;;;;4.77;4.27;;;27.30;48.90;;;;;;4999416;28;20447;-49
2023/07/09 04:40:15;;;;;;;6.23;5.27;;;27.40;48.90;;;;;;4987964;28;20470;-48
2023/07/09 04:42:43;;;;;;;4.97;4.57;;;27.40;48.90;;;;;;4994113;28;20562;-49
2023/07/09 04:45:13;;;;;;;4.93;4.00;;;27.40;48.90;;;;;;5006801;28;20445;-48
2023/07/09 04:47:42;;;;;;;5.43;4.07;;;27.30;48.80;;;;;;5005393;28;20551;-49
2023/07/09 04:50:11;;;;;;;5.13;4.47;;;27.30;48.80;;;;;;5007060;28;20454;-49
2023/07/09 04:52:40;;;;;;;5.33;4.40;;;27.30;48.70;;;;;;5003645;28;20484;-49
2023/07/09 04:55:09;;;;;;;4.50;4.10;;;27.30;48.60;;;;;;5007003;28;20459;-49
2023/07/09 04:57:39;;;;;;;4.40;4.00;;;27.30;48.70;;;;;;5002559;28;20723;-48
2023/07/09 05:00:09;;;;;;;5.00;4.50;;;27.30;48.70;;;;;;4999774;28;20568;-48
2023/07/09 05:02:39;;;;;;;4.53;4.03;;;27.30;48.60;;;;;;4997218;28;20470;-49
2023/07/09 05:05:08;;;;;;;5.07;4.07;;;27.30;48.60;;;;;;5010030;28;20480;-49
2023/07/09 05:07:37;;;;;;;6.63;4.23;;;27.30;48.60;;;;;;4984585;28;20556;-49
2023/07/09 05:10:06;;;;;;;5.70;4.10;;;27.30;48.60;;;;;;5001507;28;20461;-49
2023/07/09 05:12:35;;;;;;;4.70;4.30;;;27.30;48.80;;;;;;4990214;28;20504;-48
2023/07/09 05:15:06;;;;;;;4.13;3.60;;;27.30;48.90;;;;;;4987158;28;20528;-49
2023/07/09 05:17:34;;;;;;;4.20;3.50;;;27.30;48.80;;;;;;4988878;28;20486;-49
2023/07/09 05:20:03;;;;;;;4.60;4.30;;;27.30;49.10;;;;;;5002616;28;20485;-48
2023/07/09 05:22:32;;;;;;;4.57;4.17;;;27.30;49.60;;;;;;4994438;28;20484;-48
2023/07/09 05:25:00;;;;;;;6.27;4.70;;;27.30;49.70;;;;;;5001856;28;20796;-48
2023/07/09 05:27:29;;;;;;;4.27;3.83;;;27.30;49.80;;;;;;4969664;28;21026;-49
2023/07/09 05:29:58;;;;;;;4.77;4.30;;;27.30;49.70;;;;;;4951928;28;20478;-48
2023/07/09 05:32:28;;;;;;;4.60;4.20;;;27.30;49.90;;;;;;4951601;28;20980;-48
2023/07/09 05:34:57;;;;;;;5.60;4.83;;;27.30;50.00;;;;;;4969556;28;20434;-49
2023/07/09 05:37:25;;;;;;;5.07;4.57;;;27.30;50.20;;;;;;4980930;28;20473;-49
2023/07/09 05:39:54;;;;;;;5.90;3.97;;;27.30;50.50;;;;;;4980210;28;20494;-49
2023/07/09 05:42:23;;;;;;;6.20;4.40;;;27.30;50.20;;;;;;4988694;28;21065;-48
2023/07/09 05:44:53;;;;;;;5.07;4.57;;;27.30;50.20;;;;;;4977884;28;20438;-48
2023/07/09 05:47:21;;;;;;;6.40;4.77;;;27.30;50.50;;;;;;4971373;28;20998;-48
2023/07/09 05:49:52;;;;;;;4.93;4.37;;;27.30;50.50;;;;;;4991427;28;20439;-48
2023/07/09 05:52:22;;;;;;;7.77;4.63;;;27.30;50.70;;;;;;4987293;28;20560;-48
2023/07/09 05:54:52;;;;;;;5.70;5.17;;;27.30;50.60;;;;;;4985702;28;20427;-49
2023/07/09 05:57:21;;;;;;;6.27;4.80;;;27.30;50.70;;;;;;4972753;28;20841;-48
2023/07/09 05:59:50;;;;;;;4.50;4.10;;;27.30;50.70;;;;;;4987684;28;20466;-49
2023/07/09 06:02:21;;;;;;;5.10;4.70;;;27.30;50.70;;;;;;4972731;28;20478;-49
2023/07/09 06:04:51;;;;;;;5.60;5.00;;;27.30;50.80;;;;;;4989679;28;20438;-49
2023/07/09 06:07:20;;;;;;;4.67;4.20;;;27.30;50.60;;;;;;4968806;28;20481;-48
2023/07/09 06:09:48;;;;;;;5.20;4.50;;;27.30;51.00;;;;;;4967625;28;20457;-49
2023/07/09 06:12:18;;;;;;;4.90;4.10;;;27.30;50.80;;;;;;4987692;28;20474;-48
2023/07/09 06:14:47;;;;;;;5.80;4.53;;;27.30;50.80;;;;;;4989531;28;20435;-48
2023/07/09 06:17:16;;;;;;;4.93;4.43;;;27.30;50.70;;;;;;4981624;28;20493;-48
2023/07/09 06:19:44;;;;;;;4.03;3.63;;;27.30;50.80;;;;;;4986882;28;20450;-49
2023/07/09 06:22:14;;;;;;;5.33;4.17;;;27.30;50.60;;;;;;4974343;28;20521;-48
2023/07/09 06:24:43;;;;;;;4.60;4.17;;;27.30;51.00;;;;;;4983435;28;21101;-48
2023/07/09 06:27:11;;;;;;;4.67;4.27;;;27.30;50.80;;;;;;4985613;28;20478;-49
2023/07/09 06:29:40;;;;;;;4.47;3.93;;;27.30;52.30;;;;;;4978977;28;20971;-48
2023/07/09 06:32:09;;;;;;;4.57;4.17;;;27.30;51.20;;;;;;4978883;28;20949;-49
2023/07/09 06:34:37;;;;;;;5.10;4.50;;;27.30;51.10;;;;;;4970326;28;20454;-49
2023/07/09 06:37:06;;;;;;;5.67;5.10;;;27.30;51.00;;;;;;4983355;28;20494;-49
2023/07/09 06:39:36;;;;;;;3.77;3.37;;;27.30;51.00;;;;;;4968574;28;20490;-49
2023/07/09 06:42:05;;;;;;;4.60;4.13;;;27.30;51.00;;;;;;4985201;28;20483;-48
2023/07/09 06:44:54;;;;;;;5.70;3.60;;;27.30;51.10;;;;;;4973676;28;20462;-49
2023/07/09 06:47:23;;;;;;;5.47;4.33;;;27.30;51.10;;;;;;4982492;28;20476;-49
2023/07/09 06:49:52;;;;;;;4.33;3.93;;;27.30;51.20;;;;;;4991886;28;20553;-48
2023/07/09 06:52:20;;;;;;;4.60;4.20;;;27.30;51.20;;;;;;4987855;28;20469;-48
2023/07/09 06:54:50;;;;;;;4.13;3.73;;;27.30;51.00;;;;;;4991743;28;20504;-49
2023/07/09 06:57:19;;;;;;;5.63;3.80;;;27.30;50.90;;;;;;4988621;28;20473;-48
2023/07/09 06:59:48;;;;;;;4.20;3.50;;;27.30;50.90;;;;;;4985730;28;20450;-49
2023/07/09 07:02:17;;;;;;;4.50;4.10;;;27.30;50.90;;;;;;4983994;28;21017;-49
2023/07/09 07:04:46;;;;;;;4.37;3.97;;;27.30;50.90;;;;;;4988876;28;20800;-49
2023/07/09 07:07:14;;;;;;;5.37;3.87;;;27.30;50.70;;;;;;4998209;28;20904;-49
2023/07/09 07:09:43;;;;;;;4.07;3.77;;;27.30;50.80;;;;;;5005720;28;20555;-48
2023/07/09 07:12:20;;;;;;;3.83;3.47;;;27.30;50.60;;;;;;5001787;28;21014;-49
2023/07/09 07:14:49;;;;;;;3.90;3.50;;;27.30;50.50;;;;;;5003681;28;21655;-49
2023/07/09 07:17:18;;;;;;;3.23;3.03;;;27.30;50.50;;;;;;5003381;28;20504;-48
2023/07/09 07:19:47;;;;;;;3.67;3.37;;;27.30;50.70;;;;;;4993685;28;20457;-48
2023/07/09 07:22:15;;;;;;;4.30;4.00;;;27.30;50.50;;;;;;4997705;28;20483;-48
2023/07/09 07:24:44;;;;;;;3.40;3.10;;;27.30;50.50;;;;;;5002081;28;20454;-49
2023/07/09 07:27:14;;;;;;;4.70;4.30;;;27.30;50.50;;;;;;4988621;28;20523;-49
2023/07/09 07:29:43;;;;;;;3.60;2.73;;;27.30;50.50;;;;;;4990903;28;20998;-49
2023/07/09 07:32:11;;;;;;;3.87;3.57;;;27.30;50.60;;;;;;5001548;28;20479;-49
2023/07/09 07:34:40;;;;;;;4.43;3.50;;;27.30;50.50;;;;;;4990801;28;20505;-48
2023/07/09 07:37:09;;;;;;;3.90;3.50;;;27.30;50.50;;;;;;5005525;28;20470;-49
2023/07/09 07:39:37;;;;;;;3.93;3.53;;;27.30;50.50;;;;;;4983597;28;20462;-49
2023/07/09 07:42:07;;;;;;;4.20;3.33;;;27.30;50.50;;;;;;5002270;28;20854;-49
2023/07/09 07:44:37;;;;;;;3.57;3.23;;;27.30;50.40;;;;;;4989843;28;20500;-51
2023/07/09 07:47:07;;;;;;;3.90;3.60;;;27.30;50.40;;;;;;4997963;28;20845;-49
2023/07/09 07:49:35;;;;;;;3.73;3.40;;;27.30;50.40;;;;;;5005038;28;20442;-49
2023/07/09 07:52:05;;;;;;;3.60;3.30;;;27.30;50.40;;;;;;5002301;28;20544;-49
2023/07/09 07:54:33;;;;;;;3.70;3.10;;;27.40;50.40;;;;;;4983970;28;20545;-48
2023/07/09 07:57:02;;;;;;;3.77;3.37;;;27.40;50.50;;;;;;4988910;28;20476;-48
2023/07/09 07:59:34;;;;;;;3.60;3.30;;;27.30;50.40;;;;;;5004260;28;20476;-49
2023/07/09 08:02:06;;;;;;;3.50;3.20;;;27.40;50.50;;;;;;4987262;28;21057;-49
2023/07/09 08:04:34;;;;;;;3.97;3.10;;;27.40;50.40;;;;;;5005755;28;20448;-48
2023/07/09 08:07:03;;;;;;;3.30;3.00;;;27.40;50.40;;;;;;4987496;28;20477;-49
2023/07/09 08:09:33;;;;;;;3.00;2.70;;;27.40;50.30;;;;;;4999026;28;20463;-49
2023/07/09 08:12:08;;;;;;;3.80;3.50;;;27.40;50.40;;;;;;5001227;28;20474;-50
2023/07/09 08:14:39;;;;;;;3.40;3.10;;;27.30;50.10;;;;;;4989930;28;20445;-49
2023/07/09 08:17:09;;;;;;;4.10;3.70;;;27.30;50.20;;;;;;4986192;28;20483;-49
2023/07/09 08:19:46;;;;;;;4.77;3.27;;;27.40;50.20;;;;;;4990322;28;20450;-48
2023/07/09 08:22:16;;;;;;;3.80;3.50;;;27.40;50.20;;;;;;5002977;28;20485;-48
2023/07/09 08:24:44;;;;;;;3.43;3.13;;;27.40;50.10;;;;;;5002880;28;20480;-49
2023/07/09 08:27:13;;;;;;;3.70;3.40;;;27.40;50.10;;;;;;4987082;28;20564;-49
2023/07/09 08:29:42;;;;;;;3.30;3.00;;;27.40;50.00;;;;;;4988093;28;20447;-48
2023/07/09 08:32:13;;;;;;;3.53;3.23;;;27.40;50.00;;;;;;4987189;28;20528;-49
2023/07/09 08:34:42;;;;;;;3.63;3.30;;;27.40;50.00;;;;;;4991616;28;20690;-49
2023/07/09 08:37:31;;;;;;;4.07;3.57;;;27.40;50.00;;;;;;4997831;28;20480;-48
2023/07/09 08:40:00;;;;;;;3.43;3.13;;;27.40;50.00;;;;;;4983402;28;20474;-48
2023/07/09 08:42:34;;;;;;;3.60;3.30;;;27.40;49.90;;;;;;5003786;28;20480;-49
2023/07/09 08:45:30;;;;;;;4.03;3.73;;;27.40;49.90;;;;;;4989350;28;20441;-49
2023/07/09 08:48:06;;;;;;;3.73;3.40;;;27.40;49.90;;;;;;4981256;28;20451;-48
2023/07/09 08:50:41;;;;;;;4.13;3.73;;;27.40;50.00;;;;;;4979775;28;20951;-48
2023/07/09 08:53:17;;;;;;;3.40;2.97;;;27.40;49.90;;;;;;4997210;28;20963;-49
2023/07/09 08:55:48;;;;;;;4.10;3.27;;;27.40;50.00;;;;;;4985438;28;20873;-49
2023/07/09 08:58:24;;;;;;;3.37;3.07;;;27.40;49.90;;;;;;4998143;28;20488;-49
2023/07/09 09:00:57;;;;;;;3.50;3.20;;;27.40;49.80;;;;;;4987190;28;20466;-49
2023/07/09 09:03:38;;;;;;;3.53;3.23;;;27.40;49.80;;;;;;5002957;28;20449;-48
2023/07/09 09:06:13;;;;;;;3.70;3.40;;;27.40;49.70;;;;;;4994334;28;20535;-48
2023/07/09 09:08:52;;;;;;;3.80;3.37;;;27.40;49.80;;;;;;4996117;28;20445;-48
2023/07/09 09:11:30;;;;;;;3.40;3.00;;;27.40;49.70;;;;;;5003788;28;20835;-49
2023/07/09 09:14:05;;;;;;;3.03;2.73;;;27.40;49.70;;;;;;4995105;28;20449;-49
2023/07/09 09:16:37;;;;;;;3.40;3.10;;;27.40;49.70;;;;;;4996784;28;20467;-49
2023/07/09 09:19:23;;;;;;;3.67;3.37;;;27.40;49.80;;;;;;4995370;28;20453;-49
2023/07/09 09:21:58;;;;;;;4.50;3.10;;;27.40;49.70;;;;;;5003394;28;20488;-49
2023/07/09 09:24:32;;;;;;;3.10;2.70;;;27.40;49.70;;;;;;4987100;28;20795;-49
2023/07/09 09:27:01;;;;;;;3.93;3.53;;;27.40;49.70;;;;;;4994237;28;20486;-48
2023/07/09 09:29:30;;;;;;;3.67;3.37;;;27.40;49.70;;;;;;5002837;28;20825;-48
2023/07/09 09:32:19;;;;;;;3.07;2.87;;;27.40;49.60;;;;;;4999217;28;20508;-49
2023/07/09 09:34:49;;;;;;;3.17;2.87;;;27.50;49.70;;;;;;5005723;28;20807;-49
2023/07/09 09:37:27;;;;;;;3.70;3.30;;;27.40;49.70;;;;;;4971248;28;20490;-48
2023/07/09 09:39:56;;;;;;;4.57;3.60;;;27.50;49.80;;;;;;4988316;28;20478;-49
2023/07/09 09:42:44;;;;;;;3.50;3.20;;;27.50;49.70;;;;;;4963227;28;20486;-49
2023/07/09 09:45:16;;;;;;;3.30;2.93;;;27.50;49.80;;;;;;4969721;28;20831;-48
2023/07/09 09:47:45;;;;;;;4.63;3.37;;;27.40;49.70;;;;;;4987871;28;20489;-49
2023/07/09 09:50:17;;;;;;;3.53;3.20;;;27.50;49.70;;;;;;4977393;28;20457;-49
2023/07/09 09:52:47;;;;;;;2.93;2.73;;;27.40;49.60;;;;;;4994987;28;20467;-49
2023/07/09 09:55:20;;;;;;;4.13;3.30;;;27.50;49.70;;;;;;5000025;28;20455;-49
2023/07/09 09:57:54;;;;;;;3.00;2.70;;;27.50;49.60;;;;;;4975053;28;20906;-48
2023/07/09 10:00:25;;;;;;;3.43;3.13;;;27.40;49.40;;;;;;4987223;28;20471;-48
2023/07/09 10:02:59;;;;;;;3.40;2.80;;;27.50;49.60;;;;;;4987587;28;20506;-49
2023/07/09 10:05:35;;;;;;;3.03;2.83;;;27.50;49.60;;;;;;4976883;28;20816;-49
2023/07/09 10:08:10;;;;;;;4.00;3.20;;;27.50;49.50;;;;;;4996831;28;20906;-49
2023/07/09 10:10:40;;;;;;;5.63;2.77;;;27.50;49.60;;;;;;4994344;28;20632;-49
2023/07/09 10:13:24;;;;;;;3.37;3.07;;;27.50;49.70;;;;;;4992545;28;20457;-49
2023/07/09 10:16:04;;;;;;;3.90;3.23;;;27.50;49.40;;;;;;4980466;28;20528;-48
2023/07/09 10:18:42;;;;;;;3.77;3.47;;;27.50;49.40;;;;;;4994022;28;20482;-49
2023/07/09 10:21:19;;;;;;;3.50;3.20;;;27.50;49.30;;;;;;4988543;28;20465;-49
2023/07/09 10:23:59;;;;;;;3.60;2.97;;;27.50;49.20;;;;;;4985599;28;20994;-49
2023/07/09 10:26:37;;;;;;;3.13;2.83;;;27.50;49.20;;;;;;5003772;28;20823;-49
2023/07/09 10:29:29;;;;;;;5.10;2.97;;;27.50;49.30;;;;;;5003392;28;20481;-48
2023/07/09 10:32:08;;;;;;;3.47;3.17;;;27.50;49.20;;;;;;5007384;28;20983;-48
2023/07/09 10:34:46;;;;;;;3.30;2.90;;;27.50;49.20;;;;;;4989133;28;20449;-49
2023/07/09 10:37:36;;;;;;;3.03;2.80;;;27.50;49.20;;;;;;5003262;28;20520;-49
2023/07/09 10:40:10;;;;;;;3.23;2.97;;;27.60;49.20;;;;;;5003897;28;20490;-49
2023/07/09 10:42:46;;;;;;;4.77;3.50;;;27.60;49.40;;;;;;5006794;28;21011;-49
2023/07/09 10:45:20;;;;;;;4.03;3.40;;;27.50;49.20;;;;;;5005130;28;20465;-48
2023/07/09 10:47:54;;;;;;;3.47;3.17;;;27.50;49.20;;;;;;5001801;28;21019;-49
2023/07/09 10:50:29;;;;;;;3.73;3.43;;;27.60;49.30;;;;;;4993665;28;20486;-49
2023/07/09 10:53:05;;;;;;;3.93;3.63;;;27.60;49.30;;;;;;5013460;28;20443;-49
2023/07/09 10:55:42;;;;;;;3.00;2.80;;;27.60;49.30;;;;;;5012345;28;20568;-49
2023/07/09 10:58:25;;;;;;;3.33;3.03;;;27.60;49.40;;;;;;5007042;28;20436;-49
2023/07/09 11:00:54;;;;;;;3.97;3.57;;;27.60;49.30;;;;;;4998295;28;20527;-48
2023/07/09 11:03:36;;;;;;;3.07;2.40;;;27.60;49.30;;;;;;4993251;28;20512;-49
2023/07/09 11:06:11;;;;;;;2.70;2.50;;;27.60;49.20;;;;;;5012757;28;20476;-49
2023/07/09 11:08:42;;;;;;;3.00;2.63;;;27.60;49.20;;;;;;4986330;28;21034;-49
2023/07/09 11:11:18;;;;;;;3.40;3.10;;;27.60;49.10;;;;;;4996222;28;20470;-49
2023/07/09 11:13:49;;;;;;;3.60;3.13;;;27.60;49.10;;;;;;4992256;28;20723;-49
2023/07/09 11:16:27;;;;;;;3.80;3.40;;;27.60;49.10;;;;;;4994735;28;20517;-48
2023/07/09 11:18:59;;;;;;;3.60;2.90;;;27.60;49.20;;;;;;5001517;28;20452;-49
2023/07/09 11:21:28;;;;;;;3.33;3.03;;;27.60;49.10;;;;;;5003992;28;20489;-49
2023/07/09 11:24:00;;;;;;;4.40;2.97;;;27.60;49.00;;;;;;4994599;28;20473;-49
2023/07/09 11:26:31;;;;;;;3.40;3.10;;;27.60;49.10;;;;;;5003754;28;20473;-49
2023/07/09 11:29:16;;;;;;;3.20;2.87;;;27.60;49.10;;;;;;5007241;28;20469;-49
2023/07/09 11:31:47;;;;;;;3.13;2.83;;;27.70;49.10;;;;;;4998988;28;20489;-48
2023/07/09 11:34:19;;;;;;;3.27;2.97;;;27.70;49.20;;;;;;5005764;28;20473;-49
2023/07/09 11:36:50;;;;;;;3.60;3.30;;;27.70;49.10;;;;;;5001880;28;20484;-48
2023/07/09 11:39:28;;;;;;;4.57;3.20;;;27.70;49.20;;;;;;4992687;28;20492;-49
2023/07/09 11:42:23;;;;;;;4.13;3.67;;;27.70;49.10;;;;;;5008317;28;20780;-48
2023/07/09 11:44:59;;;;;;;3.10;2.80;;;27.70;49.10;;;;;;4979675;28;20461;-49
2023/07/09 11:47:33;;;;;;;4.00;3.20;;;27.70;49.10;;;;;;5003939;28;20477;-49
2023/07/09 11:50:06;;;;;;;3.27;2.97;;;27.70;49.10;;;;;;4995261;28;20450;-49
2023/07/09 11:52:42;;;;;;;4.10;3.17;;;27.70;49.10;;;;;;4987148;28;20494;-49
2023/07/09 11:55:25;;;;;;;4.13;3.73;;;27.70;50.30;;;;;;4990832;28;20974;-49
2023/07/09 11:57:58;;;;;;;4.53;2.60;;;27.70;49.10;;;;;;5000841;28;20442;-49
2023/07/09 12:00:29;;;;;;;3.53;3.23;;;27.80;49.20;;;;;;5004949;28;20473;-48
2023/07/09 12:02:58;;;;;;;3.03;2.77;;;27.70;49.10;;;;;;5013419;28;20516;-49
2023/07/09 12:05:30;;;;;;;3.27;2.97;;;27.80;49.10;;;;;;5003551;28;20438;-49
2023/07/09 12:07:59;;;;;;;3.73;3.43;;;27.80;49.10;;;;;;4996500;28;20453;-48
2023/07/09 12:10:34;;;;;;;3.47;3.10;;;27.80;49.10;;;;;;5001255;28;20465;-48
2023/07/09 12:13:03;;;;;;;3.30;3.00;;;27.80;49.20;;;;;;5008182;28;20452;-49
2023/07/09 12:15:32;;;;;;;3.97;3.40;;;27.80;48.90;;;;;;4986566;28;20442;-49
2023/07/09 12:18:04;;;;;;;3.60;2.80;;;27.80;48.90;;;;;;4990135;28;20947;-49
2023/07/09 12:20:36;;;;;;;3.63;3.03;;;27.80;48.90;;;;;;5016781;28;20840;-50
2023/07/09 12:23:12;;;;;;;2.80;2.60;;;27.80;49.00;;;;;;5007669;28;20489;-49
2023/07/09 12:25:49;;;;;;;3.30;3.00;;;27.80;48.90;;;;;;5007154;28;20433;-49
2023/07/09 12:28:18;;;;;;;3.33;3.03;;;27.80;49.00;;;;;;5014040;28;20439;-49
2023/07/09 12:30:48;;;;;;;3.17;2.87;;;27.90;49.00;;;;;;5016375;28;20496;-49
2023/07/09 12:33:18;;;;;;;3.73;3.43;;;27.80;48.90;;;;;;4996423;28;20445;-49
2023/07/09 12:35:48;;;;;;;3.60;3.30;;;27.90;48.50;;;;;;4997024;28;20990;-50
2023/07/09 12:38:21;;;;;;;3.63;3.23;;;27.90;47.80;;;;;;5000484;28;20458;-49
2023/07/09 12:40:52;;;;;;;3.20;2.90;;;27.90;48.30;;;;;;5015927;28;20469;-49
2023/07/09 12:43:31;;;;;;;3.80;3.50;;;27.90;48.50;;;;;;5014277;28;21017;-49
2023/07/09 12:46:00;;;;;;;2.97;2.70;;;27.90;48.70;;;;;;4990554;28;20450;-48
2023/07/09 12:48:30;;;;;;;3.60;3.30;;;27.90;48.60;;;;;;5005628;28;20491;-49
2023/07/09 12:51:00;;;;;;;3.10;2.90;;;27.90;48.60;;;;;;4995096;28;20479;-49
2023/07/09 12:53:33;;;;;;;3.37;2.80;;;27.90;48.60;;;;;;4992483;28;20556;-50
2023/07/09 12:56:03;;;;;;;4.10;3.00;;;27.90;48.60;;;;;;4988545;28;20783;-48
2023/07/09 12:58:33;;;;;;;3.40;3.00;;;27.90;48.60;;;;;;4984368;28;20454;-49
2023/07/09 13:01:07;;;;;;;3.43;3.13;;;27.90;48.70;;;;;;4994571;28;20486;-49
2023/07/09 13:03:36;;;;;;;3.60;3.30;;;27.90;48.60;;;;;;4986291;28;20899;-49
2023/07/09 13:06:06;;;;;;;2.87;2.67;;;27.90;48.60;;;;;;5015054;28;20481;-49
2023/07/09 13:08:44;;;;;;;3.20;2.90;;;28.00;48.60;;;;;;4996351;28;20454;-49
2023/07/09 13:11:19;;;;;;;3.77;2.90;;;28.00;48.80;;;;;;5013054;28;20469;-49